createdAt,value
2019-05-07T00:01:58.814Z,83.30
2019-05-07T00:04:29.574Z,84.10
2019-05-07T00:07:02.223Z,83.50
2019-05-07T00:09:32.661Z,82.80
2019-05-07T00:12:05.129Z,82.60
2019-05-07T00:14:35.917Z,82.20
2019-05-07T00:17:06.580Z,82.40
2019-05-07T00:19:37.218Z,83.40
2019-05-07T00:22:07.949Z,82.50
2019-05-07T00:24:38.828Z,82.60
2019-05-07T00:27:09.371Z,82.60
2019-05-07T00:29:39.938Z,82.60
2019-05-07T00:32:12.114Z,82.70
2019-05-07T00:34:47.599Z,83.80
2019-05-07T00:37:33.822Z,84.00
2019-05-07T00:40:23.918Z,84.00
2019-05-07T00:43:07.940Z,84.90
2019-05-07T00:46:03.763Z,84.00
2019-05-07T00:48:34.440Z,84.10
2019-05-07T00:51:22.801Z,84.20
2019-05-07T00:53:53.672Z,84.40
2019-05-07T00:56:24.454Z,85.00
2019-05-07T00:58:55.090Z,85.10
2019-05-07T01:01:25.977Z,85.30
2019-05-07T01:03:56.676Z,85.40
2019-05-07T01:06:27.406Z,86.00
2019-05-07T01:08:57.915Z,86.30
2019-05-07T01:11:28.683Z,86.70
2019-05-07T01:13:59.286Z,86.80
2019-05-07T01:16:29.930Z,86.80
2019-05-07T01:19:02.045Z,86.40
2019-05-07T01:21:32.737Z,86.20
2019-05-07T01:24:03.493Z,86.50
2019-05-07T01:26:34.344Z,86.40
2019-05-07T01:29:04.980Z,87.10
2019-05-07T01:31:39.634Z,86.60
2019-05-07T01:34:32.407Z,87.10
2019-05-07T01:37:03.178Z,87.40
2019-05-07T01:39:33.998Z,87.80
2019-05-07T01:42:04.466Z,87.90
2019-05-07T01:44:35.028Z,88.10
2019-05-07T01:47:05.781Z,88.50
2019-05-07T01:49:36.864Z,87.30
2019-05-07T01:52:07.748Z,86.90
2019-05-07T01:54:38.275Z,87.50
2019-05-07T01:57:09.119Z,87.60
2019-05-07T01:59:39.617Z,87.10
2019-05-07T02:02:18.192Z,87.60
2019-05-07T02:05:04.255Z,87.60
2019-05-07T02:07:39.076Z,87.30
2019-05-07T02:10:17.842Z,87.30
2019-05-07T02:12:48.551Z,87.30
2019-05-07T02:15:19.380Z,87.50
2019-05-07T02:17:49.974Z,87.10
2019-05-07T02:20:22.404Z,87.30
2019-05-07T02:22:53.341Z,86.90
2019-05-07T02:25:24.103Z,87.40
2019-05-07T02:27:54.889Z,87.60
2019-05-07T02:30:25.685Z,88.40
2019-05-07T02:32:56.237Z,88.50
2019-05-07T02:35:27.059Z,88.80
2019-05-07T02:38:04.244Z,88.60
2019-05-07T02:40:48.153Z,88.30
2019-05-07T02:43:18.849Z,88.70
2019-05-07T02:46:22.521Z,88.00
2019-05-07T02:48:49.391Z,86.80
2019-05-07T02:51:25.847Z,87.20
2019-05-07T02:54:13.380Z,87.10
2019-05-07T02:56:44.076Z,87.40
2019-05-07T02:59:15.036Z,87.80
2019-05-07T03:01:45.631Z,86.10
2019-05-07T03:04:16.247Z,85.40
2019-05-07T03:06:46.710Z,85.60
2019-05-07T03:09:17.589Z,85.30
2019-05-07T03:11:48.045Z,85.10
2019-05-07T03:14:18.733Z,85.50
2019-05-07T03:16:49.910Z,86.00
2019-05-07T03:19:24.192Z,87.10
2019-05-07T03:21:54.886Z,88.00
2019-05-07T03:24:44.202Z,87.60
2019-05-07T03:27:16.547Z,87.20
2019-05-07T03:29:56.870Z,87.90
2019-05-07T03:32:40.109Z,88.50
2019-05-07T03:35:36.426Z,87.60
2019-05-07T03:38:03.634Z,88.20
2019-05-07T03:40:35.486Z,88.10
2019-05-07T03:43:06.559Z,87.80
2019-05-07T03:45:58.764Z,87.10
2019-05-07T03:48:33.321Z,85.80
2019-05-07T03:51:03.877Z,84.30
2019-05-07T03:53:35.156Z,84.00
2019-05-07T03:56:05.621Z,83.90
2019-05-07T03:58:36.297Z,84.00
2019-05-07T04:01:07.143Z,84.00
2019-05-07T04:03:37.727Z,83.80
2019-05-07T04:06:08.673Z,83.80
2019-05-07T04:08:42.798Z,84.70
2019-05-07T04:11:13.946Z,84.50
2019-05-07T04:13:44.400Z,84.10
2019-05-07T04:16:15.060Z,83.00
2019-05-07T04:18:45.675Z,83.30
2019-05-07T04:21:16.601Z,83.50
2019-05-07T04:23:49.119Z,84.90
2019-05-07T04:26:33.592Z,86.50
2019-05-07T04:29:06.588Z,87.20
2019-05-07T04:31:43.055Z,87.20
2019-05-07T04:34:23.786Z,88.10
2019-05-07T04:36:53.597Z,87.20
2019-05-07T04:39:24.468Z,87.60
2019-05-07T04:41:55.137Z,88.00
2019-05-07T04:44:25.912Z,88.30
2019-05-07T04:46:56.648Z,88.10
2019-05-07T04:49:27.365Z,88.90
2019-05-07T04:52:06.247Z,89.20
2019-05-07T04:54:36.762Z,89.00
2019-05-07T04:57:12.752Z,89.40
2019-05-07T04:59:42.994Z,90.10
2019-05-07T05:02:18.724Z,90.20
2019-05-07T05:04:49.395Z,90.10
2019-05-07T05:07:22.315Z,90.10
2019-05-07T05:09:53.139Z,89.80
2019-05-07T05:12:24.263Z,90.60
2019-05-07T05:14:54.799Z,91.00
2019-05-07T05:17:25.454Z,90.90
2019-05-07T05:19:56.066Z,90.40
2019-05-07T05:22:48.334Z,90.30
2019-05-07T05:25:23.819Z,90.00
2019-05-07T05:27:54.401Z,90.50
2019-05-07T05:30:59.417Z,90.00
2019-05-07T05:33:32.236Z,90.10
2019-05-07T05:36:03.090Z,90.40
2019-05-07T05:38:33.933Z,90.30
2019-05-07T05:41:04.439Z,90.30
2019-05-07T05:43:59.897Z,91.10
2019-05-07T05:46:32.050Z,90.70
2019-05-07T05:49:02.739Z,90.40
2019-05-07T05:51:43.009Z,90.00
2019-05-07T05:54:36.305Z,90.60
2019-05-07T05:57:32.350Z,90.70
2019-05-07T06:00:34.353Z,90.20
2019-05-07T06:03:22.822Z,90.00
2019-05-07T06:05:59.311Z,90.00
2019-05-07T06:08:35.579Z,90.20
2019-05-07T06:11:15.324Z,90.30
2019-05-07T06:13:57.082Z,89.90
2019-05-07T06:16:32.893Z,89.70
2019-05-07T06:19:35.501Z,90.10
2019-05-07T06:22:24.867Z,90.30
2019-05-07T06:24:58.788Z,90.30
2019-05-07T06:27:29.285Z,90.50
2019-05-07T06:30:02.808Z,90.40
2019-05-07T06:32:32.207Z,89.80
2019-05-07T06:35:03.176Z,88.50
2019-05-07T06:37:33.878Z,88.90
2019-05-07T06:40:26.692Z,86.70
2019-05-07T06:43:13.584Z,86.50
2019-05-07T06:45:47.876Z,86.50
2019-05-07T06:48:33.028Z,87.30
2019-05-07T06:50:57.760Z,87.80
2019-05-07T06:53:29.760Z,88.20
2019-05-07T06:56:02.842Z,88.60
2019-05-07T06:58:52.672Z,88.20
2019-05-07T07:01:45.315Z,87.70
2019-05-07T07:04:36.296Z,87.20
2019-05-07T07:07:36.518Z,88.00
2019-05-07T07:10:29.639Z,86.70
2019-05-07T07:13:02.277Z,87.10
2019-05-07T07:15:32.723Z,84.70
2019-05-07T07:18:03.453Z,84.20
2019-05-07T07:20:33.927Z,84.50
2019-05-07T07:23:04.525Z,82.20
2019-05-07T07:25:35.054Z,83.10
2019-05-07T07:28:05.875Z,82.20
2019-05-07T07:30:47.053Z,81.20
2019-05-07T07:33:18.086Z,79.70
2019-05-07T07:35:48.652Z,77.90
2019-05-07T07:38:35.116Z,78.50
2019-05-07T07:41:15.996Z,78.00
2019-05-07T07:43:46.462Z,78.30
2019-05-07T07:46:17.460Z,76.60
2019-05-07T07:49:03.194Z,76.00
2019-05-07T07:51:37.218Z,76.20
2019-05-07T07:53:53.955Z,74.20
2019-05-07T07:56:52.382Z,75.50
2019-05-07T07:59:33.401Z,75.40
2019-05-07T08:02:12.685Z,73.30
2019-05-07T08:04:55.023Z,72.40
2019-05-07T08:07:25.509Z,70.90
2019-05-07T08:09:56.115Z,70.80
2019-05-07T08:12:26.737Z,69.90
2019-05-07T08:15:13.617Z,69.80
2019-05-07T08:17:29.751Z,69.50
2019-05-07T08:20:02.392Z,70.90
2019-05-07T08:22:32.940Z,71.90
2019-05-07T08:25:05.195Z,71.50
2019-05-07T08:27:35.712Z,72.50
2019-05-07T08:30:07.589Z,71.60
2019-05-07T08:35:42.368Z,68.20
2019-05-07T08:38:12.938Z,67.70
2019-05-07T08:40:43.420Z,68.00
2019-05-07T08:43:13.956Z,67.50
2019-05-07T08:46:02.752Z,66.40
2019-05-07T08:48:46.992Z,64.50
2019-05-07T08:53:52.753Z,62.40
2019-05-07T08:56:23.347Z,62.40
2019-05-07T08:58:53.858Z,63.30
2019-05-07T09:01:24.331Z,60.90
2019-05-07T09:06:36.621Z,56.10
2019-05-07T09:09:13.066Z,53.60
2019-05-07T09:11:44.010Z,50.00
2019-05-07T09:14:14.654Z,52.80
2019-05-07T09:16:45.128Z,51.40
2019-05-07T09:19:15.603Z,50.10
2019-05-07T09:21:46.301Z,49.70
2019-05-07T09:24:16.759Z,49.10
2019-05-07T09:26:53.894Z,48.60
2019-05-07T09:32:39.554Z,50.60
2019-05-07T09:35:13.253Z,52.80
2019-05-07T09:37:43.836Z,54.90
2019-05-07T09:40:15.102Z,55.00
2019-05-07T09:42:45.712Z,56.10
2019-05-07T09:45:16.736Z,58.60
2019-05-07T09:50:17.157Z,62.50
2019-05-07T09:52:47.819Z,66.40
2019-05-07T09:55:18.521Z,67.80
2019-05-07T09:57:49.041Z,67.00
2019-05-07T10:00:19.837Z,67.00
2019-05-07T10:02:50.386Z,67.70
2019-05-07T10:05:20.867Z,67.70
2019-05-07T10:07:52.631Z,68.50
2019-05-07T10:10:23.445Z,67.90
2019-05-07T10:13:08.158Z,68.60
2019-05-07T10:15:38.943Z,66.70
2019-05-07T10:18:13.210Z,66.10
2019-05-07T10:20:43.945Z,66.20
2019-05-07T10:23:22.856Z,65.30
2019-05-07T10:25:56.011Z,64.60
2019-05-07T10:28:26.500Z,64.60
2019-05-07T10:30:57.011Z,63.10
2019-05-07T10:33:27.666Z,62.30
2019-05-07T10:35:58.243Z,59.50
2019-05-07T10:38:28.726Z,58.40
2019-05-07T10:40:59.648Z,57.10
2019-05-07T10:43:32.576Z,55.60
2019-05-07T10:46:42.157Z,54.00
2019-05-07T10:49:34.855Z,54.80
2019-05-07T10:52:05.337Z,51.20
2019-05-07T10:54:36.139Z,49.20
2019-05-07T10:57:06.837Z,47.40
2019-05-07T10:59:37.362Z,47.80
2019-05-07T11:02:13.670Z,49.70
2019-05-07T11:04:45.966Z,53.00
2019-05-07T11:07:16.532Z,54.00
2019-05-07T11:09:46.999Z,54.60
2019-05-07T11:12:17.637Z,53.10
2019-05-07T11:14:48.155Z,49.30
2019-05-07T11:17:36.318Z,46.70
2019-05-07T11:20:08.305Z,48.80
2019-05-07T11:22:38.807Z,48.50
2019-05-07T11:25:09.362Z,47.50
2019-05-07T11:27:41.978Z,48.40
2019-05-07T11:30:12.607Z,48.60
2019-05-07T11:32:43.305Z,49.00
2019-05-07T11:35:14.825Z,48.00
2019-05-07T11:37:45.447Z,48.30
2019-05-07T11:40:16.477Z,45.40
2019-05-07T11:43:02.663Z,46.40
2019-05-07T11:45:39.985Z,47.00
2019-05-07T11:48:21.983Z,49.00
2019-05-07T11:51:04.462Z,47.30
2019-05-07T11:53:36.054Z,47.60
2019-05-07T11:58:36.275Z,49.60
2019-05-07T12:01:12.584Z,47.70
2019-05-07T12:03:43.214Z,46.70
2019-05-07T12:06:13.765Z,46.30
2019-05-07T12:08:51.323Z,48.00
2019-05-07T12:11:16.418Z,48.40
2019-05-07T12:13:47.317Z,50.20
2019-05-07T12:16:17.771Z,53.50
2019-05-07T12:18:48.353Z,57.80
2019-05-07T12:23:52.397Z,64.40
2019-05-07T12:26:22.458Z,67.20
2019-05-07T12:31:44.812Z,68.60
2019-05-07T12:34:34.492Z,70.10
2019-05-07T12:37:05.032Z,70.70
2019-05-07T12:39:35.591Z,71.40
2019-05-07T12:42:07.210Z,72.20
2019-05-07T12:44:37.799Z,74.20
2019-05-07T12:47:08.317Z,78.90
2019-05-07T12:49:38.915Z,82.60
2019-05-07T12:52:27.547Z,85.20
2019-05-07T12:55:16.997Z,85.80
2019-05-07T12:57:47.976Z,87.90
2019-05-07T13:00:36.338Z,89.70
2019-05-07T13:03:25.806Z,86.80
2019-05-07T13:05:56.343Z,86.50
2019-05-07T13:08:26.875Z,86.10
2019-05-07T13:10:57.383Z,83.60
2019-05-07T13:13:28.985Z,84.50
2019-05-07T13:15:59.573Z,83.00
2019-05-07T13:18:30.223Z,82.90
2019-05-07T13:21:02.419Z,83.10
2019-05-07T13:23:33.042Z,83.20
2019-05-07T13:26:03.569Z,82.90
2019-05-07T13:28:34.151Z,83.30
2019-05-07T13:31:04.728Z,83.90
2019-05-07T13:33:36.374Z,82.80
2019-05-07T13:36:06.898Z,84.60
2019-05-07T13:39:02.944Z,83.40
2019-05-07T13:41:59.417Z,83.20
2019-05-07T13:45:02.772Z,83.30
2019-05-07T13:47:37.302Z,84.30
2019-05-07T13:50:11.935Z,81.50
2019-05-07T13:52:43.469Z,77.40
2019-05-07T13:55:14.966Z,76.90
2019-05-07T13:57:45.602Z,75.50
2019-05-07T14:00:24.295Z,76.90
2019-05-07T14:02:55.447Z,76.30
2019-05-07T14:05:26.057Z,76.30
2019-05-07T14:07:57.535Z,76.60
2019-05-07T14:10:28.244Z,76.20
2019-05-07T14:13:08.542Z,76.30
2019-05-07T14:15:32.142Z,77.60
2019-05-07T14:18:03.501Z,76.70
2019-05-07T14:20:34.097Z,75.30
2019-05-07T14:23:04.906Z,74.80
2019-05-07T14:25:36.572Z,73.00
2019-05-07T14:30:36.952Z,71.30
2019-05-07T14:33:14.076Z,70.40
2019-05-07T14:35:58.032Z,70.60
2019-05-07T14:38:33.442Z,70.70
2019-05-07T14:41:04.009Z,70.00
2019-05-07T14:43:49.804Z,69.30
2019-05-07T14:46:20.673Z,67.10
2019-05-07T14:48:52.071Z,67.10
2019-05-07T14:51:23.070Z,66.20
2019-05-07T14:53:53.740Z,66.70
2019-05-07T14:56:24.434Z,65.40
2019-05-07T14:58:55.092Z,65.40
2019-05-07T15:01:25.815Z,66.70
2019-05-07T15:03:56.396Z,66.90
2019-05-07T15:06:27.081Z,67.30
2019-05-07T15:08:57.762Z,66.50
2019-05-07T15:11:28.392Z,65.80
2019-05-07T15:13:59.019Z,65.40
2019-05-07T15:16:31.866Z,65.80
2019-05-07T15:19:03.168Z,66.60
2019-05-07T15:21:33.740Z,66.40
2019-05-07T15:24:04.720Z,66.40
2019-05-07T15:26:36.523Z,66.80
2019-05-07T15:29:12.102Z,67.50
2019-05-07T15:32:04.464Z,65.50
2019-05-07T15:34:35.125Z,67.00
2019-05-07T15:37:05.624Z,66.10
2019-05-07T15:39:36.208Z,66.60
2019-05-07T15:42:06.832Z,67.90
2019-05-07T15:44:37.344Z,68.50
2019-05-07T15:47:13.658Z,66.60
2019-05-07T15:49:44.173Z,67.10
2019-05-07T15:52:22.048Z,65.60
2019-05-07T15:54:52.350Z,65.80
2019-05-07T15:57:26.791Z,66.00
2019-05-07T16:00:09.378Z,65.30
2019-05-07T16:02:45.311Z,66.00
2019-05-07T16:05:17.702Z,66.10
2019-05-07T16:07:49.650Z,65.40
2019-05-07T16:10:20.180Z,66.40
2019-05-07T16:12:53.096Z,67.10
2019-05-07T16:15:23.737Z,67.10
2019-05-07T16:17:58.906Z,67.00
2019-05-07T16:20:29.405Z,66.40
2019-05-07T16:23:14.353Z,67.80
2019-05-07T16:25:34.346Z,67.40
2019-05-07T16:28:05.163Z,66.90
2019-05-07T16:30:35.650Z,66.30
2019-05-07T16:33:06.354Z,65.30
2019-05-07T16:35:37.086Z,62.30
2019-05-07T16:38:07.737Z,61.70
2019-05-07T16:40:38.219Z,60.80
2019-05-07T16:43:08.856Z,59.70
2019-05-07T16:45:39.478Z,60.60
2019-05-07T16:48:11.854Z,60.00
2019-05-07T16:50:42.271Z,59.60
2019-05-07T16:53:26.309Z,59.20
2019-05-07T16:55:44.923Z,59.20
2019-05-07T16:58:23.495Z,60.10
2019-05-07T17:01:00.116Z,61.40
2019-05-07T17:03:38.889Z,63.80
2019-05-07T17:06:09.373Z,64.50
2019-05-07T17:08:46.128Z,64.10
2019-05-07T17:11:16.690Z,64.30
2019-05-07T17:13:47.238Z,63.90
2019-05-07T17:16:17.920Z,63.30
2019-05-07T17:18:48.736Z,62.90
2019-05-07T17:21:19.306Z,62.30
2019-05-07T17:23:51.752Z,64.00
2019-05-07T17:26:23.190Z,65.00
2019-05-07T17:28:54.920Z,65.50
2019-05-07T17:31:25.480Z,66.90
2019-05-07T17:33:56.121Z,67.70
2019-05-07T17:36:26.745Z,67.20
2019-05-07T17:38:57.349Z,68.30
2019-05-07T17:41:28.194Z,69.60
2019-05-07T17:43:58.747Z,71.20
2019-05-07T17:46:29.525Z,73.50
2019-05-07T17:49:02.054Z,75.50
2019-05-07T17:51:43.870Z,78.40
2019-05-07T17:54:15.349Z,79.40
2019-05-07T17:56:45.890Z,80.20
2019-05-07T17:59:16.517Z,81.20
2019-05-07T18:02:15.045Z,81.60
2019-05-07T18:04:51.484Z,82.10
2019-05-07T18:07:19.830Z,83.20
2019-05-07T18:09:50.513Z,83.80
2019-05-07T18:12:22.599Z,84.20
2019-05-07T18:14:53.224Z,84.40
2019-05-07T18:17:48.657Z,84.40
2019-05-07T18:20:19.165Z,84.70
2019-05-07T18:22:52.032Z,85.00
2019-05-07T18:25:21.841Z,85.20
2019-05-07T18:27:53.379Z,85.70
2019-05-07T18:30:23.886Z,86.10
2019-05-07T18:33:02.335Z,86.60
2019-05-07T18:35:32.117Z,86.50
2019-05-07T18:38:02.771Z,86.50
2019-05-07T18:40:33.350Z,86.30
2019-05-07T18:43:04.146Z,86.60
2019-05-07T18:45:34.785Z,86.50
2019-05-07T18:48:05.514Z,86.50
2019-05-07T18:50:36.022Z,86.60
2019-05-07T18:53:06.495Z,86.00
2019-05-07T18:55:37.014Z,86.20
2019-05-07T18:58:07.588Z,86.80
2019-05-07T19:00:42.404Z,87.30
2019-05-07T19:03:13.153Z,87.30
2019-05-07T19:05:43.671Z,87.50
2019-05-07T19:08:14.152Z,87.70
2019-05-07T19:10:44.779Z,86.70
2019-05-07T19:13:15.257Z,87.00
2019-05-07T19:15:45.898Z,88.00
2019-05-07T19:18:16.549Z,88.00
2019-05-07T19:20:47.140Z,88.10
2019-05-07T19:23:32.864Z,88.00
2019-05-07T19:26:02.851Z,87.90
2019-05-07T19:28:34.019Z,88.10
2019-05-07T19:31:04.801Z,88.40
2019-05-07T19:33:35.560Z,88.70
2019-05-07T19:36:06.659Z,88.40
2019-05-07T19:38:37.521Z,88.50
2019-05-07T19:41:08.257Z,88.40
2019-05-07T19:43:39.237Z,89.10
2019-05-07T19:46:12.105Z,89.60
2019-05-07T19:48:44.021Z,89.30
2019-05-07T19:51:15.023Z,88.70
2019-05-07T19:53:46.231Z,88.90
2019-05-07T19:56:21.728Z,88.80
2019-05-07T19:58:52.806Z,88.70
2019-05-07T20:01:29.451Z,88.20
2019-05-07T20:04:02.430Z,87.30
2019-05-07T20:06:32.912Z,87.00
2019-05-07T20:09:12.149Z,88.30
2019-05-07T20:11:44.623Z,90.10
2019-05-07T20:14:15.109Z,90.60
2019-05-07T20:16:45.865Z,90.90
2019-05-07T20:19:16.354Z,91.10
2019-05-07T20:21:47.837Z,91.30
2019-05-07T20:24:18.400Z,91.50
2019-05-07T20:26:49.018Z,91.80
2019-05-07T20:29:19.781Z,92.10
2019-05-07T20:31:50.326Z,92.10
2019-05-07T20:34:22.154Z,92.20
2019-05-07T20:36:53.051Z,92.30
2019-05-07T20:39:23.986Z,92.50
2019-05-07T20:41:54.684Z,92.60
2019-05-07T20:44:25.526Z,92.80
2019-05-07T20:46:56.103Z,93.00
2019-05-07T20:49:26.748Z,93.10
2019-05-07T20:51:57.620Z,93.30
2019-05-07T20:54:32.930Z,93.40
2019-05-07T20:57:06.401Z,93.50
2019-05-07T20:59:37.427Z,93.60
2019-05-07T21:02:08.328Z,93.70
2019-05-07T21:04:39.050Z,93.80
2019-05-07T21:07:11.853Z,93.90
2019-05-07T21:09:42.581Z,93.90
2019-05-07T21:12:13.227Z,94.00
2019-05-07T21:14:44.247Z,94.10
2019-05-07T21:17:15.139Z,94.10
2019-05-07T21:19:46.721Z,94.20
2019-05-07T21:22:17.595Z,94.40
2019-05-07T21:24:48.185Z,94.50
2019-05-07T21:27:18.857Z,94.60
2019-05-07T21:29:49.392Z,94.50
2019-05-07T21:32:20.288Z,94.50
2019-05-07T21:34:52.734Z,94.40
2019-05-07T21:37:23.481Z,94.40
2019-05-07T21:39:54.130Z,94.40
2019-05-07T21:42:24.835Z,94.20
2019-05-07T21:44:55.381Z,94.20
2019-05-07T21:47:26.081Z,94.20
2019-05-07T21:49:57.027Z,94.10
2019-05-07T21:52:29.482Z,94.10
2019-05-07T21:55:06.837Z,94.00
2019-05-07T21:57:54.938Z,94.00
2019-05-07T22:00:44.660Z,94.00
2019-05-07T22:03:17.240Z,94.20
2019-05-07T22:05:48.008Z,94.10
2019-05-07T22:08:18.783Z,93.90
2019-05-07T22:10:50.610Z,93.90
2019-05-07T22:13:22.085Z,93.90
2019-05-07T22:15:55.162Z,93.90
2019-05-07T22:18:25.080Z,93.90
2019-05-07T22:20:56.086Z,94.10
2019-05-07T22:23:26.818Z,94.10
2019-05-07T22:25:58.519Z,94.30
2019-05-07T22:28:32.011Z,94.30
2019-05-07T22:31:30.930Z,94.40
2019-05-07T22:34:07.950Z,94.40
2019-05-07T22:36:39.001Z,94.50
2019-05-07T22:39:29.357Z,94.50
2019-05-07T22:42:02.341Z,94.60
2019-05-07T22:44:33.763Z,94.50
2019-05-07T22:47:22.596Z,94.70
2019-05-07T22:49:53.661Z,94.80
2019-05-07T22:52:25.070Z,94.80
2019-05-07T22:54:55.668Z,94.90
2019-05-07T22:57:38.532Z,95.10
2019-05-07T23:00:12.258Z,95.20
2019-05-07T23:02:44.607Z,95.40
2019-05-07T23:05:15.289Z,95.50
2019-05-07T23:07:46.378Z,95.50
2019-05-07T23:10:17.343Z,95.40
2019-05-07T23:12:48.000Z,95.80
2019-05-07T23:15:18.866Z,95.30
2019-05-07T23:17:49.688Z,95.40
2019-05-07T23:20:24.182Z,95.40
2019-05-07T23:22:52.720Z,95.40
2019-05-07T23:25:24.599Z,95.40
2019-05-07T23:27:55.429Z,95.30
2019-05-07T23:30:26.197Z,95.30
2019-05-07T23:32:57.122Z,95.50
2019-05-07T23:35:27.931Z,95.80
2019-05-07T23:37:58.706Z,95.90
2019-05-07T23:40:56.261Z,95.80
2019-05-07T23:43:27.068Z,95.90
2019-05-07T23:45:57.762Z,96.00
2019-05-07T23:48:28.298Z,96.20
2019-05-07T23:50:58.863Z,96.20
2019-05-07T23:53:29.745Z,96.30
2019-05-07T23:56:02.808Z,96.50
2019-05-07T23:58:33.116Z,96.60
